sensor_id;sensor_type;location;lat;lon;timestamp;temperature;humidity
76203;DHT22;64985;46.364;17.008;2023-04-25T00:00:07;9.90;99.90
76203;DHT22;64985;46.364;17.008;2023-04-25T00:03:10;9.90;99.90
76203;DHT22;64985;46.364;17.008;2023-04-25T00:06:13;9.90;99.90
76203;DHT22;64985;46.364;17.008;2023-04-25T00:09:16;9.90;99.90
76203;DHT22;64985;46.364;17.008;2023-04-25T00:12:18;9.90;99.90
76203;DHT22;64985;46.364;17.008;2023-04-25T00:15:20;9.90;99.90
76203;DHT22;64985;46.364;17.008;2023-04-25T00:18:22;10.00;99.90
76203;DHT22;64985;46.364;17.008;2023-04-25T00:21:24;10.00;99.90
76203;DHT22;64985;46.364;17.008;2023-04-25T00:24:27;10.00;99.90
76203;DHT22;64985;46.364;17.008;2023-04-25T00:27:29;10.00;99.90
76203;DHT22;64985;46.364;17.008;2023-04-25T00:30:31;10.00;99.90
76203;DHT22;64985;46.364;17.008;2023-04-25T00:33:33;9.90;99.90
76203;DHT22;64985;46.364;17.008;2023-04-25T00:36:36;9.90;99.90
76203;DHT22;64985;46.364;17.008;2023-04-25T00:39:38;9.90;99.90
76203;DHT22;64985;46.364;17.008;2023-04-25T00:42:41;9.90;99.90
76203;DHT22;64985;46.364;17.008;2023-04-25T00:45:43;9.90;99.90
76203;DHT22;64985;46.364;17.008;2023-04-25T00:48:46;9.90;99.90
76203;DHT22;64985;46.364;17.008;2023-04-25T00:51:48;9.90;99.90
76203;DHT22;64985;46.364;17.008;2023-04-25T00:54:51;9.80;99.90
76203;DHT22;64985;46.364;17.008;2023-04-25T00:57:53;9.90;99.90
76203;DHT22;64985;46.364;17.008;2023-04-25T01:00:56;9.90;99.90
76203;DHT22;64985;46.364;17.008;2023-04-25T01:03:59;9.80;99.90
76203;DHT22;64985;46.364;17.008;2023-04-25T01:07:02;9.80;99.90
76203;DHT22;64985;46.364;17.008;2023-04-25T01:10:05;9.90;99.90
76203;DHT22;64985;46.364;17.008;2023-04-25T01:13:08;9.90;99.90
76203;DHT22;64985;46.364;17.008;2023-04-25T01:16:11;9.90;99.90
76203;DHT22;64985;46.364;17.008;2023-04-25T01:19:16;10.00;99.90
76203;DHT22;64985;46.364;17.008;2023-04-25T01:22:20;10.00;99.90
76203;DHT22;64985;46.364;17.008;2023-04-25T01:25:22;9.90;99.90
76203;DHT22;64985;46.364;17.008;2023-04-25T01:28:25;9.90;99.90
76203;DHT22;64985;46.364;17.008;2023-04-25T01:31:27;9.90;99.90
76203;DHT22;64985;46.364;17.008;2023-04-25T01:34:30;9.90;99.90
76203;DHT22;64985;46.364;17.008;2023-04-25T01:37:32;9.90;99.90
76203;DHT22;64985;46.364;17.008;2023-04-25T01:40:38;10.00;99.90
76203;DHT22;64985;46.364;17.008;2023-04-25T01:43:40;9.90;99.90
76203;DHT22;64985;46.364;17.008;2023-04-25T01:46:42;10.00;99.90
76203;DHT22;64985;46.364;17.008;2023-04-25T01:49:45;10.00;99.90
76203;DHT22;64985;46.364;17.008;2023-04-25T01:52:48;10.00;99.90
76203;DHT22;64985;46.364;17.008;2023-04-25T01:55:50;10.10;99.90
76203;DHT22;64985;46.364;17.008;2023-04-25T01:58:52;10.10;99.90
76203;DHT22;64985;46.364;17.008;2023-04-25T02:01:55;10.00;99.90
76203;DHT22;64985;46.364;17.008;2023-04-25T02:04:57;10.00;99.90
76203;DHT22;64985;46.364;17.008;2023-04-25T02:07:59;10.00;99.90
76203;DHT22;64985;46.364;17.008;2023-04-25T02:11:02;10.00;99.90
76203;DHT22;64985;46.364;17.008;2023-04-25T02:14:05;10.00;99.90
76203;DHT22;64985;46.364;17.008;2023-04-25T02:17:07;10.00;99.90
76203;DHT22;64985;46.364;17.008;2023-04-25T02:20:10;9.90;99.90
76203;DHT22;64985;46.364;17.008;2023-04-25T02:23:13;9.90;99.90
76203;DHT22;64985;46.364;17.008;2023-04-25T02:26:17;9.90;99.90
76203;DHT22;64985;46.364;17.008;2023-04-25T02:29:19;9.80;99.90
76203;DHT22;64985;46.364;17.008;2023-04-25T02:32:21;9.80;99.90
76203;DHT22;64985;46.364;17.008;2023-04-25T02:35:23;9.80;99.90
76203;DHT22;64985;46.364;17.008;2023-04-25T02:38:26;9.80;99.90
76203;DHT22;64985;46.364;17.008;2023-04-25T02:41:28;9.80;99.90
76203;DHT22;64985;46.364;17.008;2023-04-25T02:44:31;9.70;99.90
76203;DHT22;64985;46.364;17.008;2023-04-25T02:47:33;9.70;99.90
76203;DHT22;64985;46.364;17.008;2023-04-25T02:50:35;9.50;99.90
76203;DHT22;64985;46.364;17.008;2023-04-25T02:53:37;9.40;99.90
76203;DHT22;64985;46.364;17.008;2023-04-25T02:56:39;9.40;99.90
76203;DHT22;64985;46.364;17.008;2023-04-25T02:59:42;9.60;99.90
76203;DHT22;64985;46.364;17.008;2023-04-25T03:02:44;9.60;99.90
76203;DHT22;64985;46.364;17.008;2023-04-25T03:05:50;9.60;99.90
76203;DHT22;64985;46.364;17.008;2023-04-25T03:08:52;9.60;99.90
76203;DHT22;64985;46.364;17.008;2023-04-25T03:11:55;9.60;99.90
76203;DHT22;64985;46.364;17.008;2023-04-25T03:14:57;9.60;99.90
76203;DHT22;64985;46.364;17.008;2023-04-25T03:17:59;9.50;99.90
76203;DHT22;64985;46.364;17.008;2023-04-25T03:21:01;9.50;99.90
76203;DHT22;64985;46.364;17.008;2023-04-25T03:24:04;9.50;99.90
76203;DHT22;64985;46.364;17.008;2023-04-25T03:27:06;9.50;99.90
76203;DHT22;64985;46.364;17.008;2023-04-25T03:30:09;9.50;99.90
76203;DHT22;64985;46.364;17.008;2023-04-25T03:33:11;9.60;99.90
76203;DHT22;64985;46.364;17.008;2023-04-25T03:36:13;9.60;99.90
76203;DHT22;64985;46.364;17.008;2023-04-25T03:39:15;9.60;99.90
76203;DHT22;64985;46.364;17.008;2023-04-25T03:42:17;9.60;99.90
76203;DHT22;64985;46.364;17.008;2023-04-25T03:45:19;9.60;99.90
76203;DHT22;64985;46.364;17.008;2023-04-25T03:48:22;9.50;99.90
76203;DHT22;64985;46.364;17.008;2023-04-25T03:51:26;9.60;99.90
76203;DHT22;64985;46.364;17.008;2023-04-25T03:54:28;9.60;99.90
76203;DHT22;64985;46.364;17.008;2023-04-25T03:57:30;9.50;99.90
76203;DHT22;64985;46.364;17.008;2023-04-25T04:00:33;9.50;99.90
76203;DHT22;64985;46.364;17.008;2023-04-25T04:03:36;9.50;99.90
76203;DHT22;64985;46.364;17.008;2023-04-25T04:06:39;9.50;99.90
76203;DHT22;64985;46.364;17.008;2023-04-25T04:09:41;9.50;99.90
76203;DHT22;64985;46.364;17.008;2023-04-25T04:12:43;9.50;99.90
76203;DHT22;64985;46.364;17.008;2023-04-25T04:15:46;9.50;99.90
76203;DHT22;64985;46.364;17.008;2023-04-25T04:18:48;9.50;99.90
76203;DHT22;64985;46.364;17.008;2023-04-25T04:21:50;9.50;99.90
76203;DHT22;64985;46.364;17.008;2023-04-25T04:24:52;9.50;99.90
76203;DHT22;64985;46.364;17.008;2023-04-25T04:27:54;9.50;99.90
76203;DHT22;64985;46.364;17.008;2023-04-25T04:30:56;9.50;99.90
76203;DHT22;64985;46.364;17.008;2023-04-25T04:33:59;9.60;99.90
76203;DHT22;64985;46.364;17.008;2023-04-25T04:37:03;9.60;99.90
76203;DHT22;64985;46.364;17.008;2023-04-25T04:40:06;9.60;99.90
76203;DHT22;64985;46.364;17.008;2023-04-25T04:43:10;9.70;99.90
76203;DHT22;64985;46.364;17.008;2023-04-25T04:46:13;9.70;99.90
76203;DHT22;64985;46.364;17.008;2023-04-25T04:49:15;9.70;99.90
76203;DHT22;64985;46.364;17.008;2023-04-25T04:52:17;9.80;99.90
76203;DHT22;64985;46.364;17.008;2023-04-25T04:55:19;9.80;99.90
76203;DHT22;64985;46.364;17.008;2023-04-25T04:58:22;9.90;99.90
76203;DHT22;64985;46.364;17.008;2023-04-25T05:01:26;9.90;99.90
76203;DHT22;64985;46.364;17.008;2023-04-25T05:04:28;10.00;99.90
76203;DHT22;64985;46.364;17.008;2023-04-25T05:07:30;9.90;99.90
76203;DHT22;64985;46.364;17.008;2023-04-25T05:10:33;9.90;99.90
76203;DHT22;64985;46.364;17.008;2023-04-25T05:13:35;9.90;99.90
76203;DHT22;64985;46.364;17.008;2023-04-25T05:16:37;9.90;99.90
76203;DHT22;64985;46.364;17.008;2023-04-25T05:19:39;9.90;99.90
76203;DHT22;64985;46.364;17.008;2023-04-25T05:22:41;9.80;99.90
76203;DHT22;64985;46.364;17.008;2023-04-25T05:25:44;9.80;99.90
76203;DHT22;64985;46.364;17.008;2023-04-25T05:28:46;9.80;99.90
76203;DHT22;64985;46.364;17.008;2023-04-25T05:31:48;9.70;99.90
76203;DHT22;64985;46.364;17.008;2023-04-25T05:34:50;9.70;99.90
76203;DHT22;64985;46.364;17.008;2023-04-25T05:37:53;9.70;99.90
76203;DHT22;64985;46.364;17.008;2023-04-25T05:40:55;9.70;99.90
76203;DHT22;64985;46.364;17.008;2023-04-25T05:43:57;9.80;99.90
76203;DHT22;64985;46.364;17.008;2023-04-25T05:47:00;9.90;99.90
76203;DHT22;64985;46.364;17.008;2023-04-25T05:50:02;10.10;99.90
76203;DHT22;64985;46.364;17.008;2023-04-25T05:53:04;10.30;99.90
76203;DHT22;64985;46.364;17.008;2023-04-25T05:56:08;10.50;99.90
76203;DHT22;64985;46.364;17.008;2023-04-25T05:59:10;10.90;99.90
76203;DHT22;64985;46.364;17.008;2023-04-25T06:02:12;11.40;99.90
76203;DHT22;64985;46.364;17.008;2023-04-25T06:05:15;11.90;99.90
76203;DHT22;64985;46.364;17.008;2023-04-25T06:08:17;12.40;99.90
76203;DHT22;64985;46.364;17.008;2023-04-25T06:11:19;12.80;99.90
76203;DHT22;64985;46.364;17.008;2023-04-25T06:14:22;13.20;99.90
76203;DHT22;64985;46.364;17.008;2023-04-25T06:17:29;13.30;99.90
76203;DHT22;64985;46.364;17.008;2023-04-25T06:20:33;13.40;99.90
76203;DHT22;64985;46.364;17.008;2023-04-25T06:23:35;13.80;99.90
76203;DHT22;64985;46.364;17.008;2023-04-25T06:26:37;13.70;97.50
76203;DHT22;64985;46.364;17.008;2023-04-25T06:29:39;13.80;99.30
76203;DHT22;64985;46.364;17.008;2023-04-25T06:32:41;14.10;99.90
76203;DHT22;64985;46.364;17.008;2023-04-25T06:35:43;14.50;88.70
76203;DHT22;64985;46.364;17.008;2023-04-25T06:38:46;14.40;80.20
76203;DHT22;64985;46.364;17.008;2023-04-25T06:41:48;14.70;87.00
76203;DHT22;64985;46.364;17.008;2023-04-25T06:44:51;15.00;73.80
76203;DHT22;64985;46.364;17.008;2023-04-25T06:47:53;15.40;66.80
76203;DHT22;64985;46.364;17.008;2023-04-25T06:50:55;15.30;70.80
76203;DHT22;64985;46.364;17.008;2023-04-25T06:53:58;15.60;64.40
76203;DHT22;64985;46.364;17.008;2023-04-25T06:57:01;15.60;68.30
76203;DHT22;64985;46.364;17.008;2023-04-25T07:00:04;15.60;71.60
76203;DHT22;64985;46.364;17.008;2023-04-25T07:03:07;16.00;65.40
76203;DHT22;64985;46.364;17.008;2023-04-25T07:06:10;16.60;66.90
76203;DHT22;64985;46.364;17.008;2023-04-25T07:09:12;16.80;54.30
76203;DHT22;64985;46.364;17.008;2023-04-25T07:12:14;16.80;55.60
76203;DHT22;64985;46.364;17.008;2023-04-25T07:15:16;16.70;57.80
76203;DHT22;64985;46.364;17.008;2023-04-25T07:18:19;17.00;59.30
76203;DHT22;64985;46.364;17.008;2023-04-25T07:21:21;17.00;52.90
76203;DHT22;64985;46.364;17.008;2023-04-25T07:24:23;17.00;52.40
76203;DHT22;64985;46.364;17.008;2023-04-25T07:27:25;17.20;54.30
76203;DHT22;64985;46.364;17.008;2023-04-25T07:30:27;17.40;52.00
76203;DHT22;64985;46.364;17.008;2023-04-25T07:33:30;17.50;54.80
76203;DHT22;64985;46.364;17.008;2023-04-25T07:36:32;17.80;50.70
76203;DHT22;64985;46.364;17.008;2023-04-25T07:39:34;18.20;56.10
76203;DHT22;64985;46.364;17.008;2023-04-25T07:42:37;18.50;47.70
76203;DHT22;64985;46.364;17.008;2023-04-25T07:45:39;18.40;49.20
76203;DHT22;64985;46.364;17.008;2023-04-25T07:48:41;17.80;48.80
76203;DHT22;64985;46.364;17.008;2023-04-25T07:51:43;18.00;47.20
76203;DHT22;64985;46.364;17.008;2023-04-25T07:54:45;18.70;54.90
76203;DHT22;64985;46.364;17.008;2023-04-25T07:57:51;18.90;48.90
76203;DHT22;64985;46.364;17.008;2023-04-25T08:00:53;18.80;42.50
76203;DHT22;64985;46.364;17.008;2023-04-25T08:03:56;18.30;46.90
76203;DHT22;64985;46.364;17.008;2023-04-25T08:06:58;18.30;43.00
76203;DHT22;64985;46.364;17.008;2023-04-25T08:10:00;17.80;42.10
76203;DHT22;64985;46.364;17.008;2023-04-25T08:13:03;18.20;52.50
76203;DHT22;64985;46.364;17.008;2023-04-25T08:16:05;19.40;53.30
76203;DHT22;64985;46.364;17.008;2023-04-25T08:19:07;20.00;50.40
76203;DHT22;64985;46.364;17.008;2023-04-25T08:22:09;20.30;44.20
76203;DHT22;64985;46.364;17.008;2023-04-25T08:25:11;19.90;46.00
76203;DHT22;64985;46.364;17.008;2023-04-25T08:28:14;19.60;43.90
76203;DHT22;64985;46.364;17.008;2023-04-25T08:31:17;19.80;40.90
76203;DHT22;64985;46.364;17.008;2023-04-25T08:34:19;20.00;43.90
76203;DHT22;64985;46.364;17.008;2023-04-25T08:37:22;20.80;51.20
76203;DHT22;64985;46.364;17.008;2023-04-25T08:40:27;21.20;42.80
76203;DHT22;64985;46.364;17.008;2023-04-25T08:43:32;21.40;44.80
76203;DHT22;64985;46.364;17.008;2023-04-25T08:46:34;21.40;41.30
76203;DHT22;64985;46.364;17.008;2023-04-25T08:49:39;20.60;40.70
76203;DHT22;64985;46.364;17.008;2023-04-25T08:52:45;19.90;44.20
76203;DHT22;64985;46.364;17.008;2023-04-25T08:55:49;19.10;44.30
76203;DHT22;64985;46.364;17.008;2023-04-25T08:58:52;18.50;40.40
76203;DHT22;64985;46.364;17.008;2023-04-25T09:01:55;17.80;42.40
76203;DHT22;64985;46.364;17.008;2023-04-25T09:04:57;17.20;46.60
76203;DHT22;64985;46.364;17.008;2023-04-25T09:08:00;16.40;47.30
76203;DHT22;64985;46.364;17.008;2023-04-25T09:11:02;16.10;52.30
76203;DHT22;64985;46.364;17.008;2023-04-25T09:17:12;16.20;58.60
76203;DHT22;64985;46.364;17.008;2023-04-25T09:20:14;17.40;50.20
76203;DHT22;64985;46.364;17.008;2023-04-25T09:23:19;17.80;44.50
76203;DHT22;64985;46.364;17.008;2023-04-25T09:26:22;17.80;43.20
76203;DHT22;64985;46.364;17.008;2023-04-25T09:29:32;18.40;46.20
76203;DHT22;64985;46.364;17.008;2023-04-25T09:32:35;20.10;50.80
76203;DHT22;64985;46.364;17.008;2023-04-25T09:35:40;21.60;40.00
76203;DHT22;64985;46.364;17.008;2023-04-25T09:38:46;22.30;46.10
76203;DHT22;64985;46.364;17.008;2023-04-25T09:41:53;22.20;45.80
76203;DHT22;64985;46.364;17.008;2023-04-25T09:44:56;21.20;36.00
76203;DHT22;64985;46.364;17.008;2023-04-25T09:48:03;21.00;42.90
76203;DHT22;64985;46.364;17.008;2023-04-25T09:51:11;21.00;39.70
76203;DHT22;64985;46.364;17.008;2023-04-25T09:54:15;20.80;39.70
76203;DHT22;64985;46.364;17.008;2023-04-25T09:57:24;20.50;38.20
76203;DHT22;64985;46.364;17.008;2023-04-25T10:00:27;19.50;41.80
76203;DHT22;64985;46.364;17.008;2023-04-25T10:03:31;19.30;41.80
76203;DHT22;64985;46.364;17.008;2023-04-25T10:06:34;19.00;46.10
76203;DHT22;64985;46.364;17.008;2023-04-25T10:09:38;18.50;44.60
76203;DHT22;64985;46.364;17.008;2023-04-25T10:12:44;18.20;49.30
76203;DHT22;64985;46.364;17.008;2023-04-25T10:15:47;18.00;41.10
76203;DHT22;64985;46.364;17.008;2023-04-25T10:18:50;17.70;43.00
76203;DHT22;64985;46.364;17.008;2023-04-25T10:25:07;17.80;46.60
76203;DHT22;64985;46.364;17.008;2023-04-25T10:28:10;19.60;46.30
76203;DHT22;64985;46.364;17.008;2023-04-25T10:31:16;21.40;46.90
76203;DHT22;64985;46.364;17.008;2023-04-25T10:34:19;21.60;41.80
76203;DHT22;64985;46.364;17.008;2023-04-25T10:37:25;21.10;41.70
76203;DHT22;64985;46.364;17.008;2023-04-25T10:40:27;20.30;38.50
76203;DHT22;64985;46.364;17.008;2023-04-25T10:43:42;20.00;40.70
76203;DHT22;64985;46.364;17.008;2023-04-25T10:46:45;19.40;41.00
76203;DHT22;64985;46.364;17.008;2023-04-25T10:49:50;20.50;47.00
76203;DHT22;64985;46.364;17.008;2023-04-25T10:52:53;20.80;35.50
76203;DHT22;64985;46.364;17.008;2023-04-25T10:55:55;19.90;33.70
76203;DHT22;64985;46.364;17.008;2023-04-25T10:59:16;19.70;32.80
76203;DHT22;64985;46.364;17.008;2023-04-25T11:02:20;19.40;35.10
76203;DHT22;64985;46.364;17.008;2023-04-25T11:05:33;19.70;41.50
76203;DHT22;64985;46.364;17.008;2023-04-25T11:08:50;21.10;38.00
76203;DHT22;64985;46.364;17.008;2023-04-25T11:11:57;20.80;38.50
76203;DHT22;64985;46.364;17.008;2023-04-25T11:15:01;19.70;30.80
76203;DHT22;64985;46.364;17.008;2023-04-25T11:18:04;19.50;41.60
76203;DHT22;64985;46.364;17.008;2023-04-25T11:21:06;19.90;34.40
76203;DHT22;64985;46.364;17.008;2023-04-25T11:24:09;19.70;38.50
76203;DHT22;64985;46.364;17.008;2023-04-25T11:27:12;19.70;42.60
76203;DHT22;64985;46.364;17.008;2023-04-25T11:30:15;19.40;36.30
76203;DHT22;64985;46.364;17.008;2023-04-25T11:33:18;18.80;34.20
76203;DHT22;64985;46.364;17.008;2023-04-25T11:36:26;18.90;39.20
76203;DHT22;64985;46.364;17.008;2023-04-25T11:39:29;19.20;36.30
76203;DHT22;64985;46.364;17.008;2023-04-25T11:42:32;19.90;34.90
76203;DHT22;64985;46.364;17.008;2023-04-25T11:45:37;21.20;33.30
76203;DHT22;64985;46.364;17.008;2023-04-25T11:48:40;21.60;38.10
76203;DHT22;64985;46.364;17.008;2023-04-25T11:51:45;22.90;40.10
76203;DHT22;64985;46.364;17.008;2023-04-25T11:54:47;23.60;36.00
76203;DHT22;64985;46.364;17.008;2023-04-25T11:57:49;22.30;38.40
76203;DHT22;64985;46.364;17.008;2023-04-25T12:00:54;23.20;39.80
76203;DHT22;64985;46.364;17.008;2023-04-25T12:04:18;24.40;37.30
76203;DHT22;64985;46.364;17.008;2023-04-25T12:07:21;25.00;37.10
76203;DHT22;64985;46.364;17.008;2023-04-25T12:10:29;23.20;32.40
76203;DHT22;64985;46.364;17.008;2023-04-25T12:13:32;22.90;38.00
76203;DHT22;64985;46.364;17.008;2023-04-25T12:16:45;23.40;38.70
76203;DHT22;64985;46.364;17.008;2023-04-25T12:19:47;23.50;39.30
76203;DHT22;64985;46.364;17.008;2023-04-25T12:22:50;23.80;36.30
76203;DHT22;64985;46.364;17.008;2023-04-25T12:25:52;22.40;31.20
76203;DHT22;64985;46.364;17.008;2023-04-25T12:28:55;20.80;34.20
76203;DHT22;64985;46.364;17.008;2023-04-25T12:31:58;21.10;39.70
76203;DHT22;64985;46.364;17.008;2023-04-25T12:35:00;21.80;37.50
76203;DHT22;64985;46.364;17.008;2023-04-25T12:38:03;21.90;33.70
76203;DHT22;64985;46.364;17.008;2023-04-25T12:41:05;22.40;38.50
76203;DHT22;64985;46.364;17.008;2023-04-25T12:44:07;22.70;32.50
76203;DHT22;64985;46.364;17.008;2023-04-25T12:47:09;22.40;32.40
76203;DHT22;64985;46.364;17.008;2023-04-25T12:50:12;22.80;32.00
76203;DHT22;64985;46.364;17.008;2023-04-25T12:53:16;23.30;33.40
76203;DHT22;64985;46.364;17.008;2023-04-25T12:56:18;23.60;29.40
76203;DHT22;64985;46.364;17.008;2023-04-25T12:59:24;22.90;28.30
76203;DHT22;64985;46.364;17.008;2023-04-25T13:02:26;22.50;30.90
76203;DHT22;64985;46.364;17.008;2023-04-25T13:05:28;22.70;29.30
76203;DHT22;64985;46.364;17.008;2023-04-25T13:08:32;22.90;32.00
76203;DHT22;64985;46.364;17.008;2023-04-25T13:11:34;23.20;36.80
76203;DHT22;64985;46.364;17.008;2023-04-25T13:14:37;23.50;27.80
76203;DHT22;64985;46.364;17.008;2023-04-25T13:17:39;24.20;34.80
76203;DHT22;64985;46.364;17.008;2023-04-25T13:20:42;24.80;29.70
76203;DHT22;64985;46.364;17.008;2023-04-25T13:23:44;24.10;30.60
76203;DHT22;64985;46.364;17.008;2023-04-25T13:26:48;23.40;29.10
76203;DHT22;64985;46.364;17.008;2023-04-25T13:29:50;22.70;28.60
76203;DHT22;64985;46.364;17.008;2023-04-25T13:32:53;21.70;33.50
76203;DHT22;64985;46.364;17.008;2023-04-25T13:35:58;21.60;36.10
76203;DHT22;64985;46.364;17.008;2023-04-25T13:39:11;22.60;31.20
76203;DHT22;64985;46.364;17.008;2023-04-25T13:42:14;23.50;36.10
76203;DHT22;64985;46.364;17.008;2023-04-25T13:45:16;24.30;30.70
76203;DHT22;64985;46.364;17.008;2023-04-25T13:48:19;24.90;37.10
76203;DHT22;64985;46.364;17.008;2023-04-25T13:51:22;25.60;35.60
76203;DHT22;64985;46.364;17.008;2023-04-25T13:54:24;25.80;35.50
76203;DHT22;64985;46.364;17.008;2023-04-25T13:57:26;25.60;30.70
76203;DHT22;64985;46.364;17.008;2023-04-25T14:00:29;24.50;29.90
76203;DHT22;64985;46.364;17.008;2023-04-25T14:03:31;23.00;30.40
76203;DHT22;64985;46.364;17.008;2023-04-25T14:06:34;23.00;33.10
76203;DHT22;64985;46.364;17.008;2023-04-25T14:09:37;22.60;36.10
76203;DHT22;64985;46.364;17.008;2023-04-25T14:12:39;22.00;38.00
76203;DHT22;64985;46.364;17.008;2023-04-25T14:15:42;21.50;38.80
76203;DHT22;64985;46.364;17.008;2023-04-25T14:18:44;20.80;38.60
76203;DHT22;64985;46.364;17.008;2023-04-25T14:21:47;19.90;38.20
76203;DHT22;64985;46.364;17.008;2023-04-25T14:24:49;19.10;40.30
76203;DHT22;64985;46.364;17.008;2023-04-25T14:27:51;18.80;42.00
76203;DHT22;64985;46.364;17.008;2023-04-25T14:30:53;18.30;41.60
76203;DHT22;64985;46.364;17.008;2023-04-25T14:33:56;17.90;41.00
76203;DHT22;64985;46.364;17.008;2023-04-25T14:37:00;17.70;43.00
76203;DHT22;64985;46.364;17.008;2023-04-25T14:40:03;17.60;42.90
76203;DHT22;64985;46.364;17.008;2023-04-25T14:43:06;17.40;41.80
76203;DHT22;64985;46.364;17.008;2023-04-25T14:46:08;17.50;43.60
76203;DHT22;64985;46.364;17.008;2023-04-25T14:49:11;17.40;42.00
76203;DHT22;64985;46.364;17.008;2023-04-25T14:52:13;17.30;41.60
76203;DHT22;64985;46.364;17.008;2023-04-25T14:55:15;17.20;44.90
76203;DHT22;64985;46.364;17.008;2023-04-25T14:58:17;17.10;45.00
76203;DHT22;64985;46.364;17.008;2023-04-25T15:01:19;16.90;43.90
76203;DHT22;64985;46.364;17.008;2023-04-25T15:04:22;16.90;45.20
76203;DHT22;64985;46.364;17.008;2023-04-25T15:07:25;17.00;46.30
76203;DHT22;64985;46.364;17.008;2023-04-25T15:10:28;17.20;46.20
76203;DHT22;64985;46.364;17.008;2023-04-25T15:13:30;17.20;47.00
76203;DHT22;64985;46.364;17.008;2023-04-25T15:16:32;17.30;44.20
76203;DHT22;64985;46.364;17.008;2023-04-25T15:19:35;17.30;45.20
76203;DHT22;64985;46.364;17.008;2023-04-25T15:22:38;17.40;46.40
76203;DHT22;64985;46.364;17.008;2023-04-25T15:25:40;17.60;44.50
76203;DHT22;64985;46.364;17.008;2023-04-25T15:28:42;17.50;43.70
76203;DHT22;64985;46.364;17.008;2023-04-25T15:31:44;17.40;46.00
76203;DHT22;64985;46.364;17.008;2023-04-25T15:34:47;17.50;47.00
76203;DHT22;64985;46.364;17.008;2023-04-25T15:37:49;17.50;44.80
76203;DHT22;64985;46.364;17.008;2023-04-25T15:40:52;17.40;43.00
76203;DHT22;64985;46.364;17.008;2023-04-25T15:43:55;17.20;44.40
76203;DHT22;64985;46.364;17.008;2023-04-25T15:46:57;17.10;42.70
76203;DHT22;64985;46.364;17.008;2023-04-25T15:49:59;17.30;46.30
76203;DHT22;64985;46.364;17.008;2023-04-25T15:53:02;17.50;46.50
76203;DHT22;64985;46.364;17.008;2023-04-25T15:56:07;17.40;46.10
76203;DHT22;64985;46.364;17.008;2023-04-25T15:59:09;17.30;46.20
76203;DHT22;64985;46.364;17.008;2023-04-25T16:02:12;16.90;45.70
76203;DHT22;64985;46.364;17.008;2023-04-25T16:05:15;16.60;51.00
76203;DHT22;64985;46.364;17.008;2023-04-25T16:08:18;16.40;50.10
76203;DHT22;64985;46.364;17.008;2023-04-25T16:11:20;16.30;50.30
76203;DHT22;64985;46.364;17.008;2023-04-25T16:14:22;16.10;56.90
76203;DHT22;64985;46.364;17.008;2023-04-25T16:17:25;15.90;50.20
76203;DHT22;64985;46.364;17.008;2023-04-25T16:20:30;15.60;53.00
76203;DHT22;64985;46.364;17.008;2023-04-25T16:23:32;15.40;51.60
76203;DHT22;64985;46.364;17.008;2023-04-25T16:26:35;15.20;52.30
76203;DHT22;64985;46.364;17.008;2023-04-25T16:29:38;15.20;54.10
76203;DHT22;64985;46.364;17.008;2023-04-25T16:32:40;15.10;62.00
76203;DHT22;64985;46.364;17.008;2023-04-25T16:35:46;15.00;58.00
76203;DHT22;64985;46.364;17.008;2023-04-25T16:38:48;14.90;57.70
76203;DHT22;64985;46.364;17.008;2023-04-25T16:41:50;14.90;58.70
76203;DHT22;64985;46.364;17.008;2023-04-25T16:44:53;14.80;58.90
76203;DHT22;64985;46.364;17.008;2023-04-25T16:47:55;14.70;61.20
76203;DHT22;64985;46.364;17.008;2023-04-25T16:50:57;14.50;62.20
76203;DHT22;64985;46.364;17.008;2023-04-25T16:54:00;14.50;64.80
76203;DHT22;64985;46.364;17.008;2023-04-25T16:57:02;14.30;60.70
76203;DHT22;64985;46.364;17.008;2023-04-25T17:00:06;14.30;62.90
76203;DHT22;64985;46.364;17.008;2023-04-25T17:03:11;14.10;55.60
76203;DHT22;64985;46.364;17.008;2023-04-25T17:06:14;14.10;55.40
76203;DHT22;64985;46.364;17.008;2023-04-25T17:09:17;14.00;58.30
76203;DHT22;64985;46.364;17.008;2023-04-25T17:12:20;13.80;56.80
76203;DHT22;64985;46.364;17.008;2023-04-25T17:15:22;13.60;57.30
76203;DHT22;64985;46.364;17.008;2023-04-25T17:18:25;13.50;64.20
76203;DHT22;64985;46.364;17.008;2023-04-25T17:21:27;13.40;64.90
76203;DHT22;64985;46.364;17.008;2023-04-25T17:24:30;13.30;68.90
76203;DHT22;64985;46.364;17.008;2023-04-25T17:27:33;13.10;70.20
76203;DHT22;64985;46.364;17.008;2023-04-25T17:30:35;13.00;72.80
76203;DHT22;64985;46.364;17.008;2023-04-25T17:33:38;13.00;71.30
76203;DHT22;64985;46.364;17.008;2023-04-25T17:36:41;12.90;73.90
76203;DHT22;64985;46.364;17.008;2023-04-25T17:39:44;12.80;74.00
76203;DHT22;64985;46.364;17.008;2023-04-25T17:42:47;12.80;83.20
76203;DHT22;64985;46.364;17.008;2023-04-25T17:45:51;12.70;78.30
76203;DHT22;64985;46.364;17.008;2023-04-25T17:48:53;12.60;80.60
76203;DHT22;64985;46.364;17.008;2023-04-25T17:51:55;12.50;83.60
76203;DHT22;64985;46.364;17.008;2023-04-25T17:54:58;12.40;87.00
76203;DHT22;64985;46.364;17.008;2023-04-25T17:58:02;12.30;89.90
76203;DHT22;64985;46.364;17.008;2023-04-25T18:01:06;12.30;90.60
76203;DHT22;64985;46.364;17.008;2023-04-25T18:04:09;12.20;90.90
76203;DHT22;64985;46.364;17.008;2023-04-25T18:07:12;12.10;90.00
76203;DHT22;64985;46.364;17.008;2023-04-25T18:10:15;12.10;91.90
76203;DHT22;64985;46.364;17.008;2023-04-25T18:13:18;12.00;92.10
76203;DHT22;64985;46.364;17.008;2023-04-25T18:16:21;12.00;91.60
76203;DHT22;64985;46.364;17.008;2023-04-25T18:19:24;11.90;92.50
76203;DHT22;64985;46.364;17.008;2023-04-25T18:22:27;11.90;94.00
76203;DHT22;64985;46.364;17.008;2023-04-25T18:25:30;11.80;96.70
76203;DHT22;64985;46.364;17.008;2023-04-25T18:28:32;11.70;92.90
76203;DHT22;64985;46.364;17.008;2023-04-25T18:31:36;11.70;95.30
76203;DHT22;64985;46.364;17.008;2023-04-25T18:34:42;11.70;98.90
76203;DHT22;64985;46.364;17.008;2023-04-25T18:37:47;11.60;98.50
76203;DHT22;64985;46.364;17.008;2023-04-25T18:40:49;11.50;98.80
76203;DHT22;64985;46.364;17.008;2023-04-25T18:44:11;11.50;99.10
76203;DHT22;64985;46.364;17.008;2023-04-25T18:47:14;11.40;97.50
76203;DHT22;64985;46.364;17.008;2023-04-25T18:50:18;11.30;96.90
76203;DHT22;64985;46.364;17.008;2023-04-25T18:53:23;11.30;99.90
76203;DHT22;64985;46.364;17.008;2023-04-25T18:56:26;11.30;99.90
76203;DHT22;64985;46.364;17.008;2023-04-25T18:59:32;11.20;99.90
76203;DHT22;64985;46.364;17.008;2023-04-25T19:02:35;11.10;99.90
76203;DHT22;64985;46.364;17.008;2023-04-25T19:05:38;11.00;99.90
76203;DHT22;64985;46.364;17.008;2023-04-25T19:08:40;10.90;99.90